KCLL/CLL METAR and TAF weather

Enter ICAO airport designator
Station Type Date Time Source
KCLL METAR 2020/01/19 02:53 UTC NOAA

KCLL 190253Z AUTO 36013KT 10SM CLR 13/06 A3033 RMK AO2 SLP267 T01280056 51034


Station Type Date Time Source
KCLL Decoded METAR 2020/01/19 02:53 UTC NOAA

COLLEGE STN EASTERWOOD FIELD, TX, United States (KCLL) 30-35N 096-22W 96M
Jan 18, 2020 - 09:53 PM EST / 2020.01.19 0253 UTC
Wind: from the N (360 degrees) at 15 MPH (13 KT):0
Visibility: 10 mile(s):0
Sky conditions: clear
Temperature: 55.0 F (12.8 C)
Dew Point: 42.1 F (5.6 C)
Relative Humidity: 61%
Pressure (altimeter): 30.33 in. Hg (1027 hPa)
Pressure tendency: 0.10 inches (3.4 hPa) higher than three hours ago
ob: KCLL 190253Z AUTO 36013KT 10SM CLR 13/06 A3033 RMK AO2 SLP267 T01280056 51034
cycle: 3

Station Type Date Time Source
KCLL TAF 2020/01/18 21:16 UTC NOAA

TAF
AMD KCLL 182114Z 1821/1918 35013KT P6SM OVC080
FM182300 36014G25KT P6SM BKN250
FM190500 01013G21KT P6SM SKC

Example: see airport list